createdAt,value
2023-03-19T00:02:16.705Z,95575.53
2023-03-19T00:04:46.249Z,95574.75
2023-03-19T00:07:13.892Z,95581.06
2023-03-19T00:09:40.660Z,95589.69
2023-03-19T00:12:08.540Z,95577.13
2023-03-19T00:14:35.528Z,95576.59
2023-03-19T00:17:02.109Z,95575.00
2023-03-19T00:19:28.677Z,95580.78
2023-03-19T00:21:55.159Z,95580.00
2023-03-19T00:24:23.092Z,95577.91
2023-03-19T00:26:49.609Z,95581.84
2023-03-19T00:29:16.387Z,95588.91
2023-03-19T00:31:43.063Z,95571.34
2023-03-19T00:34:10.374Z,95602.00
2023-03-19T00:36:37.377Z,95601.75
2023-03-19T00:39:04.707Z,95600.69
2023-03-19T00:41:32.490Z,95570.78
2023-03-19T00:43:59.339Z,95587.53
2023-03-19T00:46:26.384Z,95598.03
2023-03-19T00:48:55.465Z,95572.03
2023-03-19T00:51:23.477Z,95582.78
2023-03-19T00:53:50.979Z,95553.94
2023-03-19T00:56:18.373Z,95588.31
2023-03-19T00:58:46.429Z,95602.25
2023-03-19T01:01:16.144Z,95598.59
2023-03-19T01:03:43.516Z,95608.00
2023-03-19T01:06:09.945Z,95604.59
2023-03-19T01:08:36.692Z,95591.94
2023-03-19T01:11:12.362Z,95595.88
2023-03-19T01:13:39.049Z,95589.81
2023-03-19T01:16:06.614Z,95595.56
2023-03-19T01:18:33.206Z,95599.75
2023-03-19T01:20:59.772Z,95597.63
2023-03-19T01:23:28.182Z,95620.44
2023-03-19T01:25:54.631Z,95603.13
2023-03-19T01:28:22.248Z,95623.06
2023-03-19T01:30:48.930Z,95595.22
2023-03-19T01:33:29.500Z,95602.34
2023-03-19T01:36:05.502Z,95614.97
2023-03-19T01:38:38.800Z,95614.69
2023-03-19T01:41:10.023Z,95606.22
2023-03-19T01:43:37.500Z,95607.28
2023-03-19T01:46:26.336Z,95603.13
2023-03-19T01:49:11.981Z,95599.41
2023-03-19T01:51:43.149Z,95606.22
2023-03-19T01:54:31.180Z,95605.69
2023-03-19T01:57:26.111Z,95608.34
2023-03-19T02:00:16.110Z,95618.25
2023-03-19T02:02:48.820Z,95621.94
2023-03-19T02:05:26.783Z,95610.94
2023-03-19T02:08:06.450Z,95618.34
2023-03-19T02:10:34.520Z,95610.97
2023-03-19T02:13:01.376Z,95611.47
2023-03-19T02:15:28.104Z,95618.38
2023-03-19T02:17:54.738Z,95614.66
2023-03-19T02:20:44.189Z,95622.16
2023-03-19T02:23:34.640Z,95628.75
2023-03-19T02:26:09.363Z,95606.22
2023-03-19T02:28:39.816Z,95608.81
2023-03-19T02:31:08.258Z,95625.56
2023-03-19T02:33:35.378Z,95614.81
2023-03-19T02:36:05.251Z,95606.91
2023-03-19T02:38:34.083Z,95614.75
2023-03-19T02:41:04.406Z,95609.00
2023-03-19T02:43:34.235Z,95603.72
2023-03-19T02:46:03.445Z,95600.16
2023-03-19T02:48:29.905Z,95614.00
2023-03-19T02:50:56.826Z,95617.91
2023-03-19T02:53:23.816Z,95626.50
2023-03-19T02:55:51.837Z,95618.41
2023-03-19T02:58:18.624Z,95618.13
2023-03-19T03:00:45.198Z,95618.72
2023-03-19T03:03:12.182Z,95624.97
2023-03-19T03:05:39.319Z,95623.94
2023-03-19T03:08:06.782Z,95624.69
2023-03-19T03:10:33.729Z,95621.25
2023-03-19T03:13:01.533Z,95631.25
2023-03-19T03:15:28.322Z,95644.88
2023-03-19T03:17:56.344Z,95638.53
2023-03-19T03:20:22.848Z,95647.19
2023-03-19T03:22:49.293Z,95648.00
2023-03-19T03:25:16.258Z,95653.25
2023-03-19T03:27:42.805Z,95638.50
2023-03-19T03:30:10.718Z,95658.47
2023-03-19T03:32:38.701Z,95649.59
2023-03-19T03:35:07.023Z,95638.50
2023-03-19T03:37:33.569Z,95637.44
2023-03-19T03:40:00.054Z,95647.16
2023-03-19T03:42:27.065Z,95646.38
2023-03-19T03:44:53.594Z,95645.78
2023-03-19T03:47:20.536Z,95645.38
2023-03-19T03:49:47.120Z,95640.34
2023-03-19T03:52:13.608Z,95649.81
2023-03-19T03:54:40.723Z,95655.25
2023-03-19T03:57:08.089Z,95652.41
2023-03-19T03:59:34.733Z,95665.53
2023-03-19T04:02:01.595Z,95645.31
2023-03-19T04:04:28.261Z,95658.47
2023-03-19T04:06:55.782Z,95677.56
2023-03-19T04:09:31.179Z,95670.81
2023-03-19T04:11:58.784Z,95655.31
2023-03-19T04:14:25.282Z,95653.75
2023-03-19T04:16:52.094Z,95661.09
2023-03-19T04:19:19.163Z,95677.38
2023-03-19T04:21:45.929Z,95657.72
2023-03-19T04:24:13.240Z,95673.72
2023-03-19T04:26:40.609Z,95665.25
2023-03-19T04:29:08.724Z,95670.53
2023-03-19T04:31:35.842Z,95681.56
2023-03-19T04:34:02.495Z,95692.03
2023-03-19T04:36:29.083Z,95673.72
2023-03-19T04:38:55.798Z,95691.00
2023-03-19T04:41:22.702Z,95695.19
2023-03-19T04:44:21.836Z,95689.94
2023-03-19T04:46:48.817Z,95696.22
2023-03-19T04:49:17.964Z,95697.81
2023-03-19T04:51:45.689Z,95705.41
2023-03-19T04:54:12.355Z,95689.13
2023-03-19T04:56:39.205Z,95688.13
2023-03-19T04:59:06.647Z,95690.97
2023-03-19T05:01:33.234Z,95682.03
2023-03-19T05:04:03.781Z,95695.47
2023-03-19T05:06:33.103Z,95696.81
2023-03-19T05:09:00.838Z,95696.09
2023-03-19T05:11:27.465Z,95706.28
2023-03-19T05:14:12.599Z,95712.31
2023-03-19T05:16:55.084Z,95705.03
2023-03-19T05:19:22.434Z,95712.91
2023-03-19T05:21:49.783Z,95711.38
2023-03-19T05:24:21.196Z,95716.88
2023-03-19T05:26:48.199Z,95708.50
2023-03-19T05:29:41.077Z,95716.66
2023-03-19T05:32:17.521Z,95733.75
2023-03-19T05:34:44.966Z,95736.06
2023-03-19T05:37:12.025Z,95749.97
2023-03-19T05:39:39.532Z,95712.50
2023-03-19T05:42:08.832Z,95724.59
2023-03-19T05:44:36.804Z,95736.19
2023-03-19T05:47:29.796Z,95745.59
2023-03-19T05:49:57.650Z,95735.66
2023-03-19T05:52:24.539Z,95755.84
2023-03-19T05:54:54.087Z,95757.69
2023-03-19T05:57:46.907Z,95755.63
2023-03-19T06:00:18.691Z,95754.91
2023-03-19T06:02:46.980Z,95762.25
2023-03-19T06:05:30.231Z,95770.63
2023-03-19T06:08:03.036Z,95775.38
2023-03-19T06:11:08.056Z,95791.63
2023-03-19T06:13:36.259Z,95794.00
2023-03-19T06:16:09.299Z,95805.56
2023-03-19T06:18:43.259Z,95805.31
2023-03-19T06:21:12.245Z,95808.97
2023-03-19T06:23:38.866Z,95823.97
2023-03-19T06:26:07.056Z,95831.59
2023-03-19T06:28:44.161Z,95820.28
2023-03-19T06:31:10.690Z,95800.09
2023-03-19T06:33:56.385Z,95829.53
2023-03-19T06:36:27.017Z,95831.34
2023-03-19T06:38:53.726Z,95820.84
2023-03-19T06:41:20.178Z,95845.00
2023-03-19T06:43:48.184Z,95825.84
2023-03-19T06:46:14.736Z,95830.31
2023-03-19T06:48:41.205Z,95837.94
2023-03-19T06:51:08.010Z,95834.53
2023-03-19T06:53:34.620Z,95846.84
2023-03-19T06:56:01.431Z,95841.88
2023-03-19T06:58:28.148Z,95844.22
2023-03-19T07:00:54.934Z,95850.00
2023-03-19T07:03:21.610Z,95854.47
2023-03-19T07:05:51.100Z,95835.81
2023-03-19T07:08:18.108Z,95854.97
2023-03-19T07:10:44.572Z,95863.34
2023-03-19T07:13:11.003Z,95874.91
2023-03-19T07:15:37.461Z,95848.66
2023-03-19T07:18:04.185Z,95877.78
2023-03-19T07:20:30.909Z,95865.19
2023-03-19T07:22:57.440Z,95888.28
2023-03-19T07:25:24.017Z,95862.53
2023-03-19T07:27:50.768Z,95900.59
2023-03-19T07:30:17.376Z,95857.22
2023-03-19T07:32:44.000Z,95902.63
2023-03-19T07:35:11.025Z,95847.44
2023-03-19T07:37:37.486Z,95898.06
2023-03-19T07:40:05.097Z,95904.38
2023-03-19T07:42:31.547Z,95911.13
2023-03-19T07:44:57.985Z,95915.88
2023-03-19T07:47:29.438Z,95915.84
2023-03-19T07:49:57.191Z,95926.13
2023-03-19T07:52:25.160Z,95918.50
2023-03-19T07:54:52.341Z,95911.44
2023-03-19T07:57:19.462Z,95920.59
2023-03-19T07:59:46.539Z,95925.84
2023-03-19T08:02:13.510Z,95925.31
2023-03-19T08:04:40.399Z,95943.59
2023-03-19T08:07:08.054Z,95922.84
2023-03-19T08:09:34.519Z,95935.50
2023-03-19T08:12:01.018Z,95946.84
2023-03-19T08:14:27.448Z,95923.19
2023-03-19T08:16:53.968Z,95935.91
2023-03-19T08:19:20.604Z,95933.88
2023-03-19T08:21:47.111Z,95933.41
2023-03-19T08:24:13.619Z,95930.53
2023-03-19T08:26:40.330Z,95874.34
2023-03-19T08:29:07.182Z,95939.34
2023-03-19T08:31:33.858Z,95925.25
2023-03-19T08:34:03.021Z,95937.31
2023-03-19T08:36:29.470Z,95930.22
2023-03-19T08:38:56.477Z,95897.91
2023-03-19T08:41:23.459Z,95917.25
2023-03-19T08:43:50.068Z,95931.38
2023-03-19T08:46:16.924Z,95924.41
2023-03-19T08:48:43.940Z,95929.66
2023-03-19T08:51:11.225Z,95959.31
2023-03-19T08:53:38.670Z,95925.41
2023-03-19T08:56:07.747Z,95958.50
2023-03-19T08:58:34.656Z,95956.22
2023-03-19T09:01:07.669Z,95938.88
2023-03-19T09:03:34.346Z,95942.06
2023-03-19T09:06:02.502Z,95960.84
2023-03-19T09:08:29.551Z,95954.09
2023-03-19T09:10:56.438Z,95971.63
2023-03-19T09:13:23.928Z,95972.94
2023-03-19T09:15:51.283Z,95966.19
2023-03-19T09:18:20.700Z,95969.88
2023-03-19T09:20:47.703Z,95928.34
2023-03-19T09:23:14.297Z,95967.94
2023-03-19T09:25:40.862Z,95982.84
2023-03-19T09:28:10.860Z,95939.09
2023-03-19T09:30:37.334Z,95976.59
2023-03-19T09:33:04.804Z,95964.47
2023-03-19T09:35:33.696Z,95983.31
2023-03-19T09:38:01.886Z,95976.97
2023-03-19T09:40:57.137Z,95981.72
2023-03-19T09:43:46.375Z,95982.53
2023-03-19T09:46:20.578Z,95983.94
2023-03-19T09:48:57.858Z,95985.72
2023-03-19T09:51:39.245Z,95998.13
2023-03-19T09:54:21.089Z,96009.56
2023-03-19T09:56:47.577Z,95998.84
2023-03-19T09:59:14.020Z,95990.41
2023-03-19T10:01:47.579Z,95991.28
2023-03-19T10:04:44.078Z,96010.72
2023-03-19T10:07:16.909Z,96001.97
2023-03-19T10:10:22.997Z,95998.56
2023-03-19T10:13:11.310Z,95996.44
2023-03-19T10:15:38.571Z,95987.47
2023-03-19T10:18:16.159Z,95981.38
2023-03-19T10:21:00.463Z,95979.94
2023-03-19T10:23:43.110Z,95983.63
2023-03-19T10:26:13.994Z,95976.38
2023-03-19T10:28:44.248Z,95972.91
2023-03-19T10:31:21.817Z,95955.31
2023-03-19T10:34:02.875Z,95972.91
2023-03-19T10:36:34.846Z,95962.34
2023-03-19T10:39:01.405Z,95984.28
2023-03-19T10:41:31.884Z,95949.53
2023-03-19T10:44:05.774Z,95996.44
2023-03-19T10:46:41.593Z,96001.22
2023-03-19T10:49:13.130Z,95975.78
2023-03-19T10:51:45.178Z,95978.84
2023-03-19T10:54:27.496Z,95985.28
2023-03-19T10:56:59.677Z,95979.31
2023-03-19T10:59:36.405Z,95984.09
2023-03-19T11:02:16.761Z,95971.69
2023-03-19T11:04:43.295Z,95973.47
2023-03-19T11:07:17.629Z,95967.09
2023-03-19T11:09:49.610Z,95930.13
2023-03-19T11:12:25.799Z,95960.44
2023-03-19T11:14:54.269Z,95947.06
2023-03-19T11:17:38.831Z,95944.16
2023-03-19T11:20:23.502Z,95949.47
2023-03-19T11:22:52.514Z,95957.72
2023-03-19T11:25:27.033Z,95936.75
2023-03-19T11:28:03.790Z,95959.78
2023-03-19T11:31:12.223Z,95944.50
2023-03-19T11:33:58.941Z,95932.56
2023-03-19T11:36:49.902Z,95959.44
2023-03-19T11:39:54.511Z,95946.56
2023-03-19T11:42:45.322Z,95949.88
2023-03-19T11:45:33.601Z,95949.88
2023-03-19T11:48:20.404Z,95941.09
2023-03-19T11:50:56.643Z,95944.78
2023-03-19T11:53:53.455Z,95937.38
2023-03-19T11:56:22.929Z,95937.50
2023-03-19T11:59:05.284Z,95937.78
2023-03-19T12:02:09.306Z,95944.72
2023-03-19T12:05:06.273Z,95937.63
2023-03-19T12:07:38.669Z,95937.38
2023-03-19T12:10:39.371Z,95929.34
2023-03-19T12:13:29.724Z,95937.19
2023-03-19T12:16:20.745Z,95912.22
2023-03-19T12:19:22.745Z,95917.78
2023-03-19T12:22:16.540Z,95920.44
2023-03-19T12:25:02.088Z,95912.19
2023-03-19T12:27:54.735Z,95911.06
2023-03-19T12:30:41.873Z,95905.91
2023-03-19T12:33:12.873Z,95902.47
2023-03-19T12:35:41.895Z,95875.28
2023-03-19T12:38:24.234Z,95896.84
2023-03-19T12:41:03.663Z,95872.66
2023-03-19T12:43:37.254Z,95839.53
2023-03-19T12:46:12.030Z,95879.97
2023-03-19T12:48:56.615Z,95880.44
2023-03-19T12:51:34.148Z,95881.41
2023-03-19T12:54:14.352Z,95878.47
2023-03-19T12:56:50.849Z,95874.34
2023-03-19T12:59:32.742Z,95883.94
2023-03-19T13:02:09.780Z,95875.91
2023-03-19T13:04:45.799Z,95877.78
2023-03-19T13:07:22.670Z,95878.44
2023-03-19T13:10:04.079Z,95876.91
2023-03-19T13:12:34.064Z,95870.59
2023-03-19T13:15:19.493Z,95869.56
2023-03-19T13:18:23.401Z,95866.50
2023-03-19T13:21:21.688Z,95873.72
2023-03-19T13:23:51.475Z,95855.09
2023-03-19T13:26:18.711Z,95861.88
2023-03-19T13:29:17.197Z,95864.22
2023-03-19T13:31:43.903Z,95852.78
2023-03-19T13:34:20.328Z,95865.94
2023-03-19T13:37:14.470Z,95847.72
2023-03-19T13:39:42.439Z,95853.44
2023-03-19T13:42:24.201Z,95863.91
2023-03-19T13:45:03.170Z,95863.44
2023-03-19T13:47:31.749Z,95862.94
2023-03-19T13:50:10.878Z,95859.22
2023-03-19T13:52:43.692Z,95857.88
2023-03-19T13:55:28.391Z,95853.28
2023-03-19T13:58:12.018Z,95851.38
2023-03-19T14:00:45.024Z,95846.72
2023-03-19T14:03:29.594Z,95845.97
2023-03-19T14:05:57.796Z,95834.41
2023-03-19T14:08:31.496Z,95810.28
2023-03-19T14:11:04.768Z,95822.66
2023-03-19T14:13:38.353Z,95841.97
2023-03-19T14:16:18.802Z,95844.91
2023-03-19T14:18:48.494Z,95840.41
2023-03-19T14:21:21.786Z,95778.47
2023-03-19T14:23:54.964Z,95828.06
2023-03-19T14:26:29.296Z,95819.38
2023-03-19T14:29:02.522Z,95822.50
2023-03-19T14:31:43.210Z,95823.28
2023-03-19T14:34:31.577Z,95825.03
2023-03-19T14:37:20.260Z,95827.69
2023-03-19T14:39:54.207Z,95823.28
2023-03-19T14:42:31.486Z,95808.38
2023-03-19T14:45:14.440Z,95815.34
2023-03-19T14:47:59.271Z,95829.94
2023-03-19T14:51:09.154Z,95818.25
2023-03-19T14:53:46.104Z,95817.59
2023-03-19T14:56:27.335Z,95818.16
2023-03-19T14:58:56.073Z,95812.38
2023-03-19T15:01:26.879Z,95813.25
2023-03-19T15:04:00.615Z,95811.69
2023-03-19T15:06:33.680Z,95748.53
2023-03-19T15:09:02.289Z,95777.13
2023-03-19T15:11:50.715Z,95788.06
2023-03-19T15:14:56.152Z,95790.00
2023-03-19T15:17:27.180Z,95787.94
2023-03-19T15:19:55.772Z,95787.41
2023-03-19T15:22:27.109Z,95760.44
2023-03-19T15:24:53.948Z,95752.31
2023-03-19T15:27:23.053Z,95797.25
2023-03-19T15:29:51.942Z,95787.19
2023-03-19T15:32:52.289Z,95790.13
2023-03-19T15:35:26.924Z,95779.56
2023-03-19T15:37:59.875Z,95792.41
2023-03-19T15:40:31.109Z,95795.81
2023-03-19T15:43:02.369Z,95791.13
2023-03-19T15:45:33.645Z,95803.66
2023-03-19T15:48:18.455Z,95792.78
2023-03-19T15:50:47.887Z,95789.94
2023-03-19T15:53:28.577Z,95795.66
2023-03-19T15:55:55.750Z,95796.22
2023-03-19T15:58:30.329Z,95796.22
2023-03-19T16:01:00.282Z,95764.69
2023-03-19T16:03:32.785Z,95778.00
2023-03-19T16:06:06.630Z,95763.50
2023-03-19T16:08:33.488Z,95799.75
2023-03-19T16:11:14.801Z,95783.88
2023-03-19T16:13:46.686Z,95750.59
2023-03-19T16:16:20.435Z,95803.88
2023-03-19T16:18:53.036Z,95753.69
2023-03-19T16:21:28.225Z,95815.75
2023-03-19T16:24:09.079Z,95789.06
2023-03-19T16:26:42.228Z,95804.44
2023-03-19T16:29:29.633Z,95798.09
2023-03-19T16:32:02.403Z,95824.03
2023-03-19T16:34:41.058Z,95819.94
2023-03-19T16:37:41.743Z,95822.84
2023-03-19T16:40:15.475Z,95820.97
2023-03-19T16:42:46.373Z,95822.06
2023-03-19T16:45:18.921Z,95831.66
2023-03-19T16:47:48.523Z,95835.97
2023-03-19T16:50:15.990Z,95812.50
2023-03-19T16:52:45.475Z,95825.94
2023-03-19T16:55:20.091Z,95845.72
2023-03-19T16:57:53.961Z,95752.13
2023-03-19T17:00:21.295Z,95842.50
2023-03-19T17:02:47.712Z,95823.75
2023-03-19T17:05:15.634Z,95847.88
2023-03-19T17:07:42.397Z,95834.38
2023-03-19T17:10:20.419Z,95813.97
2023-03-19T17:12:50.090Z,95848.88
2023-03-19T17:15:24.588Z,95856.72
2023-03-19T17:17:51.585Z,95851.53
2023-03-19T17:20:30.301Z,95849.97
2023-03-19T17:22:56.826Z,95791.97
2023-03-19T17:25:23.767Z,95860.53
2023-03-19T17:27:50.255Z,95864.88
2023-03-19T17:30:16.845Z,95849.25
2023-03-19T17:32:49.581Z,95865.44
2023-03-19T17:35:18.719Z,95862.09
2023-03-19T17:37:46.012Z,95870.72
2023-03-19T17:40:29.306Z,95869.94
2023-03-19T17:42:56.313Z,95869.72
2023-03-19T17:45:27.792Z,95828.72
2023-03-19T17:47:56.769Z,95880.91
2023-03-19T17:50:28.433Z,95794.28
2023-03-19T17:52:55.452Z,95851.41
2023-03-19T17:55:28.052Z,95873.75
2023-03-19T17:57:55.285Z,95873.53
2023-03-19T18:00:23.930Z,95863.16
2023-03-19T18:02:53.057Z,95853.22
2023-03-19T18:05:21.672Z,95849.63
2023-03-19T18:07:49.782Z,95859.06
2023-03-19T18:10:18.134Z,95884.75
2023-03-19T18:12:45.161Z,95885.59
2023-03-19T18:15:13.414Z,95873.84
2023-03-19T18:17:47.922Z,95880.25
2023-03-19T18:20:20.150Z,95864.59
2023-03-19T18:22:46.636Z,95867.81
2023-03-19T18:25:25.734Z,95873.84
2023-03-19T18:27:52.685Z,95867.66
2023-03-19T18:30:22.255Z,95892.59
2023-03-19T18:32:52.778Z,95875.31
2023-03-19T18:35:22.894Z,95892.13
2023-03-19T18:37:51.043Z,95890.31
2023-03-19T18:40:21.044Z,95873.84
2023-03-19T18:42:48.840Z,95900.66
2023-03-19T18:45:17.305Z,95891.25
2023-03-19T18:47:45.817Z,95877.16
2023-03-19T18:50:19.801Z,95900.22
2023-03-19T18:52:47.919Z,95903.44
2023-03-19T18:55:15.010Z,95889.84
2023-03-19T18:57:52.963Z,95904.47
2023-03-19T19:00:24.206Z,95912.16
2023-03-19T19:02:52.292Z,95911.88
2023-03-19T19:05:36.924Z,95900.03
2023-03-19T19:08:03.539Z,95898.50
2023-03-19T19:10:34.439Z,95906.91
2023-03-19T19:13:02.010Z,95814.34
2023-03-19T19:15:33.467Z,95870.47
2023-03-19T19:18:00.766Z,95907.97
2023-03-19T19:20:29.292Z,95898.81
2023-03-19T19:22:57.878Z,95915.34
2023-03-19T19:25:26.917Z,95902.00
2023-03-19T19:28:13.746Z,95942.94
2023-03-19T19:30:40.457Z,95931.34
2023-03-19T19:33:21.712Z,95958.28
2023-03-19T19:35:49.048Z,95966.94
2023-03-19T19:38:15.987Z,95961.69
2023-03-19T19:40:44.528Z,95960.09
2023-03-19T19:43:17.904Z,95963.78
2023-03-19T19:45:47.252Z,95952.81
2023-03-19T19:48:19.948Z,95920.81
2023-03-19T19:50:47.683Z,95973.25
2023-03-19T19:53:15.679Z,95945.00
2023-03-19T19:55:44.590Z,95971.69
2023-03-19T19:58:31.425Z,95979.56
2023-03-19T20:01:03.732Z,95976.41
2023-03-19T20:03:33.156Z,95994.50
2023-03-19T20:06:01.384Z,95953.00
2023-03-19T20:08:28.764Z,95977.75
2023-03-19T20:10:56.346Z,95994.25
2023-03-19T20:13:37.692Z,95980.63
2023-03-19T20:16:07.366Z,96003.47
2023-03-19T20:18:35.606Z,95987.28
2023-03-19T20:21:04.082Z,96016.09
2023-03-19T20:23:31.292Z,96008.19
2023-03-19T20:26:03.141Z,96021.31
2023-03-19T20:28:35.700Z,96020.59
2023-03-19T20:31:03.935Z,96025.41
2023-03-19T20:33:31.470Z,95928.72
2023-03-19T20:35:58.606Z,95939.34
2023-03-19T20:38:27.193Z,95967.75
2023-03-19T20:40:56.331Z,95986.53
2023-03-19T20:43:34.565Z,96026.00
2023-03-19T20:46:04.946Z,96051.44
2023-03-19T20:48:32.588Z,96032.09
2023-03-19T20:51:01.382Z,96064.25
2023-03-19T20:53:28.816Z,96050.34
2023-03-19T20:55:55.544Z,95977.13
2023-03-19T20:58:36.709Z,96004.69
2023-03-19T21:01:03.452Z,96070.38
2023-03-19T21:03:31.785Z,96073.84
2023-03-19T21:06:02.075Z,96048.38
2023-03-19T21:08:33.039Z,96073.09
2023-03-19T21:11:00.842Z,96076.03
2023-03-19T21:13:27.390Z,95990.16
2023-03-19T21:15:54.246Z,95979.94
2023-03-19T21:18:21.348Z,96023.81
2023-03-19T21:20:54.549Z,96085.06
2023-03-19T21:23:31.379Z,96082.69
2023-03-19T21:25:59.301Z,96036.22
2023-03-19T21:28:33.931Z,96071.19
2023-03-19T21:31:00.658Z,96090.59
2023-03-19T21:33:30.689Z,96094.88
2023-03-19T21:35:58.291Z,96073.03
2023-03-19T21:38:25.373Z,96089.34
2023-03-19T21:40:55.904Z,96072.78
2023-03-19T21:43:40.856Z,96075.19
2023-03-19T21:46:23.585Z,96093.84
2023-03-19T21:48:51.297Z,96048.63
2023-03-19T21:51:18.092Z,96024.47
2023-03-19T21:53:45.550Z,96085.44
2023-03-19T21:56:23.255Z,96042.81
2023-03-19T21:58:53.598Z,96092.00
2023-03-19T22:01:23.552Z,96080.97
2023-03-19T22:03:51.514Z,96088.59
2023-03-19T22:06:19.050Z,96043.41
2023-03-19T22:08:46.715Z,96080.75
2023-03-19T22:11:24.308Z,96099.16
2023-03-19T22:13:51.212Z,96094.69
2023-03-19T22:16:28.896Z,96066.53
2023-03-19T22:18:55.374Z,96056.53
2023-03-19T22:21:23.341Z,96093.91
2023-03-19T22:23:50.884Z,96100.19
2023-03-19T22:26:27.494Z,96094.13
2023-03-19T22:28:55.342Z,96100.97
2023-03-19T22:31:22.090Z,96093.63
2023-03-19T22:33:48.988Z,96088.63
2023-03-19T22:36:15.790Z,96070.75
2023-03-19T22:38:44.792Z,96069.72
2023-03-19T22:41:24.728Z,96106.00
2023-03-19T22:43:51.359Z,96104.16
2023-03-19T22:46:19.629Z,96086.81
2023-03-19T22:48:48.070Z,96096.00
2023-03-19T22:51:17.654Z,96106.28
2023-03-19T22:53:44.848Z,96049.72
2023-03-19T22:56:12.239Z,96077.63
2023-03-19T22:58:38.766Z,96100.50
2023-03-19T23:01:21.071Z,96106.53
2023-03-19T23:03:49.212Z,96103.91
2023-03-19T23:06:29.797Z,96088.38
2023-03-19T23:08:57.485Z,96091.53
2023-03-19T23:11:24.366Z,96105.47
2023-03-19T23:13:51.068Z,96100.75
2023-03-19T23:16:24.308Z,96092.03
2023-03-19T23:18:52.049Z,96112.06
2023-03-19T23:21:20.724Z,96114.16
2023-03-19T23:23:47.386Z,96066.81
2023-03-19T23:26:30.129Z,96105.47
2023-03-19T23:29:02.030Z,96081.53
2023-03-19T23:31:39.481Z,96059.19
2023-03-19T23:34:06.161Z,96106.53
2023-03-19T23:36:32.776Z,96049.72
2023-03-19T23:39:02.045Z,96067.88
2023-03-19T23:41:30.014Z,96101.28
2023-03-19T23:44:03.086Z,96114.16
2023-03-19T23:46:35.012Z,96029.22
2023-03-19T23:49:02.001Z,96106.53
2023-03-19T23:51:31.492Z,96113.91
2023-03-19T23:53:57.973Z,96092.84
2023-03-19T23:56:27.124Z,96095.47
